createdAt,value
2024-01-20T00:02:11.119Z,100650.52
2024-01-20T00:04:40.881Z,100646.33
2024-01-20T00:06:50.966Z,100651.91
2024-01-20T00:09:00.829Z,100659.27
2024-01-20T00:11:24.045Z,100649.39
2024-01-20T00:13:37.501Z,100644.80
2024-01-20T00:15:47.193Z,100644.73
2024-01-20T00:18:07.250Z,100646.05
2024-01-20T00:20:20.174Z,100646.37
2024-01-20T00:22:40.001Z,100638.14
2024-01-20T00:24:54.498Z,100638.69
2024-01-20T00:27:04.359Z,100640.85
2024-01-20T00:29:14.194Z,100639.55
2024-01-20T00:31:30.770Z,100638.12
2024-01-20T00:34:00.647Z,100626.74
2024-01-20T00:36:10.969Z,100633.77
2024-01-20T00:38:30.533Z,100626.02
2024-01-20T00:40:45.728Z,100616.55
2024-01-20T00:43:05.506Z,100614.03
2024-01-20T00:45:15.398Z,100599.92
2024-01-20T00:47:28.715Z,100592.39
2024-01-20T00:49:58.306Z,100591.45
2024-01-20T00:52:09.268Z,100602.15
2024-01-20T00:54:38.720Z,100606.95
2024-01-20T00:56:59.358Z,100625.45
2024-01-20T00:59:19.015Z,100625.51
2024-01-20T01:01:42.677Z,100619.48
2024-01-20T01:04:02.097Z,100625.18
2024-01-20T01:06:14.906Z,100624.32
2024-01-20T01:08:27.578Z,100618.77
2024-01-20T01:10:37.314Z,100621.08
2024-01-20T01:12:47.290Z,100605.38
2024-01-20T01:15:17.248Z,100604.25
2024-01-20T01:17:27.035Z,100608.51
2024-01-20T01:19:40.254Z,100600.21
2024-01-20T01:21:49.837Z,100605.95
2024-01-20T01:23:59.277Z,100607.27
2024-01-20T01:26:09.284Z,100603.46
2024-01-20T01:28:19.051Z,100592.93
2024-01-20T01:30:50.463Z,100596.05
2024-01-20T01:33:20.008Z,100583.89
2024-01-20T01:35:32.643Z,100580.06
2024-01-20T01:37:45.936Z,100579.39
2024-01-20T01:40:11.765Z,100576.93
2024-01-20T01:42:21.206Z,100579.52
2024-01-20T01:44:40.949Z,100566.19
2024-01-20T01:46:54.333Z,100566.66
2024-01-20T01:49:07.988Z,100573.89
2024-01-20T01:51:37.630Z,100565.85
2024-01-20T01:53:51.855Z,100569.95
2024-01-20T01:56:02.408Z,100574.41
2024-01-20T01:58:12.131Z,100575.44
2024-01-20T02:00:33.455Z,100579.80
2024-01-20T02:02:43.081Z,100588.92
2024-01-20T02:05:02.800Z,100586.16
2024-01-20T02:07:23.160Z,100582.02
2024-01-20T02:09:34.948Z,100587.59
2024-01-20T02:11:44.838Z,100580.73
2024-01-20T02:13:55.929Z,100588.56
2024-01-20T02:16:25.590Z,100582.65
2024-01-20T02:18:55.269Z,100584.88
2024-01-20T02:21:16.229Z,100578.84
2024-01-20T02:23:25.944Z,100571.84
2024-01-20T02:25:38.651Z,100569.91
2024-01-20T02:27:59.205Z,100570.10
2024-01-20T02:30:14.221Z,100571.02
2024-01-20T02:32:43.748Z,100565.53
2024-01-20T02:34:56.259Z,100562.47
2024-01-20T02:37:06.517Z,100562.59
2024-01-20T02:39:16.363Z,100558.52
2024-01-20T02:41:46.309Z,100560.34
2024-01-20T02:43:58.799Z,100548.25
2024-01-20T02:46:11.561Z,100542.25
2024-01-20T02:48:21.521Z,100547.22
2024-01-20T02:50:51.578Z,100547.58
2024-01-20T02:53:01.681Z,100551.21
2024-01-20T02:55:21.298Z,100543.29
2024-01-20T02:57:51.007Z,100543.30
2024-01-20T03:00:12.054Z,100536.58
2024-01-20T03:02:21.808Z,100538.66
2024-01-20T03:04:31.552Z,100541.47
2024-01-20T03:06:41.541Z,100545.31
2024-01-20T03:08:51.032Z,100543.65
2024-01-20T03:11:00.610Z,100543.91
2024-01-20T03:13:10.507Z,100537.96
2024-01-20T03:15:30.357Z,100548.02
2024-01-20T03:17:43.082Z,100537.48
2024-01-20T03:19:52.830Z,100524.62
2024-01-20T03:22:02.884Z,100520.73
2024-01-20T03:24:14.812Z,100518.11
2024-01-20T03:26:25.052Z,100523.98
2024-01-20T03:28:34.560Z,100528.50
2024-01-20T03:30:47.275Z,100523.21
2024-01-20T03:33:01.658Z,100521.91
2024-01-20T03:35:24.313Z,100522.20
2024-01-20T03:37:33.887Z,100524.28
2024-01-20T03:39:53.599Z,100517.70
2024-01-20T03:42:03.576Z,100521.23
2024-01-20T03:44:33.647Z,100529.89
2024-01-20T03:46:54.292Z,100527.81
2024-01-20T03:49:23.934Z,100524.30
2024-01-20T03:51:44.546Z,100512.46
2024-01-20T03:53:54.534Z,100517.48
2024-01-20T03:56:18.270Z,100507.23
2024-01-20T03:58:30.902Z,100501.91
2024-01-20T04:00:40.820Z,100503.44
2024-01-20T04:02:51.238Z,100495.58
2024-01-20T04:05:04.452Z,100493.95
2024-01-20T04:07:24.146Z,100494.36
2024-01-20T04:09:39.385Z,100492.13
2024-01-20T04:11:49.351Z,100488.11
2024-01-20T04:14:19.027Z,100499.59
2024-01-20T04:16:48.742Z,100500.36
2024-01-20T04:19:08.601Z,100500.11
2024-01-20T04:21:28.660Z,100490.52
2024-01-20T04:23:43.326Z,100483.69
2024-01-20T04:25:53.838Z,100481.30
2024-01-20T04:28:13.658Z,100481.27
2024-01-20T04:30:36.340Z,100483.65
2024-01-20T04:33:07.249Z,100481.04
2024-01-20T04:35:37.001Z,100486.58
2024-01-20T04:37:46.848Z,100488.73
2024-01-20T04:39:57.723Z,100488.99
2024-01-20T04:42:27.512Z,100484.99
2024-01-20T04:44:47.182Z,100484.06
2024-01-20T04:46:56.668Z,100485.42
2024-01-20T04:49:09.841Z,100474.16
2024-01-20T04:51:20.766Z,100477.10
2024-01-20T04:53:51.569Z,100475.23
2024-01-20T04:56:11.140Z,100475.86
2024-01-20T04:58:20.933Z,100480.10
2024-01-20T05:00:34.006Z,100469.35
2024-01-20T05:02:43.848Z,100461.92
2024-01-20T05:04:57.000Z,100462.59
2024-01-20T05:07:19.689Z,100469.71
2024-01-20T05:09:33.036Z,100468.25
2024-01-20T05:11:42.728Z,100466.25
2024-01-20T05:13:52.279Z,100461.86
2024-01-20T05:16:13.338Z,100464.98
2024-01-20T05:18:23.362Z,100462.16
2024-01-20T05:20:53.370Z,100459.95
2024-01-20T05:23:08.970Z,100457.41
2024-01-20T05:25:21.565Z,100460.83
2024-01-20T05:27:51.554Z,100455.86
2024-01-20T05:30:05.883Z,100454.63
2024-01-20T05:32:17.452Z,100452.38
2024-01-20T05:34:27.322Z,100448.30
2024-01-20T05:36:41.204Z,100453.75
2024-01-20T05:38:54.325Z,100452.20
2024-01-20T05:41:15.178Z,100435.56
2024-01-20T05:43:25.328Z,100440.20
2024-01-20T05:45:35.475Z,100446.88
2024-01-20T05:47:56.619Z,100434.81
2024-01-20T05:50:11.151Z,100421.93
2024-01-20T05:52:20.595Z,100422.23
2024-01-20T05:54:30.459Z,100425.64
2024-01-20T05:57:00.494Z,100417.80
2024-01-20T05:59:13.909Z,100415.33
2024-01-20T06:01:34.551Z,100419.16
2024-01-20T06:03:44.288Z,100414.95
2024-01-20T06:06:04.989Z,100409.61
2024-01-20T06:08:34.768Z,100407.95
2024-01-20T06:10:47.491Z,100405.16
2024-01-20T06:12:57.062Z,100411.59
2024-01-20T06:15:16.427Z,100407.48
2024-01-20T06:17:25.984Z,100409.61
2024-01-20T06:19:35.547Z,100408.75
2024-01-20T06:21:54.462Z,100407.05
2024-01-20T06:24:04.463Z,100412.10
2024-01-20T06:26:34.131Z,100413.02
2024-01-20T06:29:03.935Z,100400.45
2024-01-20T06:31:34.097Z,100397.55
2024-01-20T06:33:57.982Z,100396.80
2024-01-20T06:36:28.016Z,100401.74
2024-01-20T06:38:41.720Z,100404.61
2024-01-20T06:40:51.407Z,100406.92
2024-01-20T06:43:01.123Z,100402.02
2024-01-20T06:45:15.135Z,100403.64
2024-01-20T06:47:25.209Z,100392.88
2024-01-20T06:49:40.889Z,100386.22
2024-01-20T06:51:53.300Z,100393.30
2024-01-20T06:54:23.153Z,100397.79
2024-01-20T06:56:52.836Z,100402.54
2024-01-20T06:59:08.216Z,100396.94
2024-01-20T07:01:21.562Z,100392.59
2024-01-20T07:03:42.516Z,100388.57
2024-01-20T07:06:06.128Z,100378.02
2024-01-20T07:08:35.882Z,100379.16
2024-01-20T07:11:09.870Z,100395.58
2024-01-20T07:13:39.807Z,100406.16
2024-01-20T07:16:13.714Z,100401.06
2024-01-20T07:18:23.444Z,100390.04
2024-01-20T07:20:36.192Z,100385.59
2024-01-20T07:22:57.076Z,100375.41
2024-01-20T07:25:25.922Z,100376.20
2024-01-20T07:27:45.339Z,100371.71
2024-01-20T07:29:55.010Z,100384.52
2024-01-20T07:32:05.742Z,100381.79
2024-01-20T07:34:15.879Z,100374.02
2024-01-20T07:36:45.697Z,100361.45
2024-01-20T07:39:07.184Z,100352.89
2024-01-20T07:41:16.849Z,100359.58
2024-01-20T07:43:29.653Z,100356.81
2024-01-20T07:45:40.993Z,100358.53
2024-01-20T07:48:11.188Z,100352.36
2024-01-20T07:50:40.426Z,100356.81
2024-01-20T07:52:53.677Z,100357.80
2024-01-20T07:55:03.513Z,100346.81
2024-01-20T07:57:24.036Z,100339.48
2024-01-20T07:59:54.350Z,100343.42
2024-01-20T08:02:05.086Z,100352.13
2024-01-20T08:04:27.087Z,100353.15
2024-01-20T08:06:42.033Z,100346.05
2024-01-20T08:08:50.030Z,100337.14
2024-01-20T08:11:03.115Z,100339.35
2024-01-20T08:13:12.654Z,100338.47
2024-01-20T08:15:25.844Z,100341.50
2024-01-20T08:17:55.839Z,100345.56
2024-01-20T08:20:25.764Z,100335.84
2024-01-20T08:22:45.464Z,100325.11
2024-01-20T08:25:06.699Z,100319.92
2024-01-20T08:27:16.495Z,100315.74
2024-01-20T08:29:46.169Z,100312.23
2024-01-20T08:31:55.923Z,100313.10
2024-01-20T08:34:05.928Z,100302.38
2024-01-20T08:36:18.945Z,100289.34
2024-01-20T08:38:28.609Z,100290.82
2024-01-20T08:40:41.261Z,100311.66
2024-01-20T08:42:51.648Z,100317.97
2024-01-20T08:45:21.198Z,100302.09
2024-01-20T08:47:40.130Z,100296.92
2024-01-20T08:50:10.803Z,100297.23
2024-01-20T08:52:20.792Z,100307.77
2024-01-20T08:54:50.323Z,100314.53
2024-01-20T08:57:02.582Z,100300.83
2024-01-20T08:59:32.194Z,100297.14
2024-01-20T09:01:44.845Z,100295.25
2024-01-20T09:03:54.691Z,100283.63
2024-01-20T09:06:17.750Z,100271.77
2024-01-20T09:08:36.618Z,100260.59
2024-01-20T09:10:46.362Z,100262.52
2024-01-20T09:13:15.985Z,100259.63
2024-01-20T09:15:29.160Z,100262.69
2024-01-20T09:17:39.017Z,100250.67
2024-01-20T09:20:10.640Z,100251.02
2024-01-20T09:22:23.439Z,100254.34
2024-01-20T09:24:33.009Z,100268.77
2024-01-20T09:26:42.652Z,100272.74
2024-01-20T09:28:52.286Z,100279.62
2024-01-20T09:31:22.391Z,100285.91
2024-01-20T09:33:32.224Z,100279.35
2024-01-20T09:36:04.479Z,100279.67
2024-01-20T09:38:34.179Z,100278.88
2024-01-20T09:40:54.516Z,100274.48
2024-01-20T09:43:08.067Z,100260.81
2024-01-20T09:45:23.573Z,100260.02
2024-01-20T09:47:37.063Z,100258.31
2024-01-20T09:49:46.772Z,100253.33
2024-01-20T09:52:21.372Z,100252.66
2024-01-20T09:54:49.258Z,100248.84
2024-01-20T09:57:20.988Z,100248.67
2024-01-20T09:59:43.831Z,100254.13
2024-01-20T10:01:55.394Z,100254.15
2024-01-20T10:04:27.151Z,100247.87
2024-01-20T10:06:47.725Z,100241.60
2024-01-20T10:09:17.378Z,100256.32
2024-01-20T10:11:28.525Z,100264.14
2024-01-20T10:13:50.204Z,100245.55
2024-01-20T10:16:02.853Z,100250.89
2024-01-20T10:18:32.900Z,100249.45
2024-01-20T10:21:09.234Z,100244.34
2024-01-20T10:23:41.485Z,100249.77
2024-01-20T10:26:06.301Z,100240.14
2024-01-20T10:28:36.339Z,100227.50
2024-01-20T10:30:58.779Z,100219.73
2024-01-20T10:33:18.380Z,100216.30
2024-01-20T10:35:34.674Z,100227.34
2024-01-20T10:37:46.207Z,100226.35
2024-01-20T10:40:02.415Z,100233.70
2024-01-20T10:42:17.269Z,100253.94
2024-01-20T10:44:40.806Z,100248.44
2024-01-20T10:46:55.191Z,100252.10
2024-01-20T10:49:27.370Z,100249.75
2024-01-20T10:51:39.906Z,100241.28
2024-01-20T10:54:02.931Z,100231.00
2024-01-20T10:56:16.834Z,100230.69
2024-01-20T10:58:53.666Z,100219.27
2024-01-20T11:01:03.325Z,100223.50
2024-01-20T11:03:13.630Z,100218.42
2024-01-20T11:05:26.053Z,100199.15
2024-01-20T11:07:40.888Z,100199.56
2024-01-20T11:10:00.430Z,100198.81
2024-01-20T11:12:26.596Z,100194.91
2024-01-20T11:14:54.739Z,100186.75
2024-01-20T11:17:16.482Z,100191.86
2024-01-20T11:19:34.592Z,100185.36
2024-01-20T11:21:55.555Z,100185.83
2024-01-20T11:24:06.076Z,100174.38
2024-01-20T11:26:36.164Z,100170.20
2024-01-20T11:28:48.732Z,100170.09
2024-01-20T11:31:02.057Z,100170.52
2024-01-20T11:33:26.348Z,100151.23
2024-01-20T11:35:46.143Z,100152.16
2024-01-20T11:38:07.590Z,100159.63
2024-01-20T11:40:27.029Z,100162.25
2024-01-20T11:42:46.650Z,100154.00
2024-01-20T11:45:16.801Z,100151.86
2024-01-20T11:47:55.122Z,100155.58
2024-01-20T11:50:04.951Z,100164.79
2024-01-20T11:52:24.514Z,100166.95
2024-01-20T11:54:36.242Z,100165.92
2024-01-20T11:56:45.869Z,100168.24
2024-01-20T11:59:06.254Z,100166.55
2024-01-20T12:01:19.339Z,100163.02
2024-01-20T12:03:49.258Z,100169.67
2024-01-20T12:06:11.947Z,100166.92
2024-01-20T12:08:46.721Z,100171.37
2024-01-20T12:11:23.443Z,100170.38
2024-01-20T12:13:34.419Z,100176.66
2024-01-20T12:15:51.534Z,100171.79
2024-01-20T12:18:04.676Z,100167.28
2024-01-20T12:20:34.535Z,100163.14
2024-01-20T12:22:57.863Z,100159.80
2024-01-20T12:25:28.109Z,100159.54
2024-01-20T12:27:43.934Z,100159.45
2024-01-20T12:30:12.233Z,100153.23
2024-01-20T12:32:25.269Z,100152.14
2024-01-20T12:34:47.743Z,100147.41
2024-01-20T12:36:57.566Z,100142.91
2024-01-20T12:39:28.033Z,100139.82
2024-01-20T12:41:57.871Z,100135.94
2024-01-20T12:44:27.363Z,100137.91
2024-01-20T12:46:37.331Z,100140.05
2024-01-20T12:48:57.910Z,100140.02
2024-01-20T12:51:07.870Z,100138.13
2024-01-20T12:53:20.819Z,100136.15
2024-01-20T12:55:39.552Z,100136.89
2024-01-20T12:58:02.419Z,100140.30
2024-01-20T13:00:14.155Z,100143.39
2024-01-20T13:02:44.092Z,100137.16
2024-01-20T13:05:13.949Z,100130.22
2024-01-20T13:07:27.110Z,100124.14
2024-01-20T13:09:46.914Z,100126.53
2024-01-20T13:12:06.739Z,100122.84
2024-01-20T13:14:36.645Z,100115.27
2024-01-20T13:16:49.301Z,100103.48
2024-01-20T13:18:59.527Z,100094.03
2024-01-20T13:21:09.302Z,100088.04
2024-01-20T13:23:29.151Z,100085.39
2024-01-20T13:25:51.654Z,100090.41
2024-01-20T13:28:15.096Z,100082.77
2024-01-20T13:30:33.810Z,100091.20
2024-01-20T13:32:43.749Z,100087.31
2024-01-20T13:34:53.220Z,100090.38
2024-01-20T13:37:12.188Z,100089.92
2024-01-20T13:39:24.844Z,100080.48
2024-01-20T13:41:54.536Z,100078.03
2024-01-20T13:44:24.029Z,100070.79
2024-01-20T13:46:37.371Z,100058.55
2024-01-20T13:49:04.146Z,100057.19
2024-01-20T13:51:27.197Z,100053.01
2024-01-20T13:53:48.977Z,100045.20
2024-01-20T13:56:18.642Z,100044.34
2024-01-20T13:58:39.248Z,100045.45
2024-01-20T14:01:09.907Z,100043.98
2024-01-20T14:03:39.943Z,100045.92
2024-01-20T14:05:59.849Z,100036.45
2024-01-20T14:08:10.169Z,100029.16
2024-01-20T14:10:20.053Z,100016.00
2024-01-20T14:12:39.700Z,100012.36
2024-01-20T14:14:49.830Z,100011.80
2024-01-20T14:17:04.091Z,100018.66
2024-01-20T14:19:33.951Z,100008.86
2024-01-20T14:22:04.175Z,99995.29
2024-01-20T14:24:19.872Z,99984.53
2024-01-20T14:26:43.404Z,99975.96
2024-01-20T14:29:03.270Z,99976.80
2024-01-20T14:31:16.640Z,99973.52
2024-01-20T14:33:29.539Z,99980.64
2024-01-20T14:35:42.330Z,99983.13
2024-01-20T14:37:52.372Z,99989.34
2024-01-20T14:40:10.433Z,99980.59
2024-01-20T14:42:40.418Z,99967.23
2024-01-20T14:45:04.650Z,99976.98
2024-01-20T14:47:25.491Z,99973.36
2024-01-20T14:49:45.986Z,99971.95
2024-01-20T14:52:15.536Z,99963.23
2024-01-20T14:54:30.781Z,99948.16
2024-01-20T14:56:41.661Z,99932.90
2024-01-20T14:59:11.186Z,99932.23
2024-01-20T15:01:21.132Z,99924.02
2024-01-20T15:03:42.118Z,99922.25
2024-01-20T15:05:55.408Z,99923.47
2024-01-20T15:08:05.091Z,99907.41
2024-01-20T15:10:15.362Z,99910.48
2024-01-20T15:12:28.226Z,99906.46
2024-01-20T15:14:57.580Z,99908.95
2024-01-20T15:17:20.070Z,99904.16
2024-01-20T15:19:29.598Z,99904.23
2024-01-20T15:21:43.103Z,99895.10
2024-01-20T15:24:12.967Z,99903.21
2024-01-20T15:26:42.375Z,99903.34
2024-01-20T15:28:52.090Z,99900.72
2024-01-20T15:31:01.887Z,99898.42
2024-01-20T15:33:21.626Z,99901.83
2024-01-20T15:35:34.865Z,99904.23
2024-01-20T15:37:47.668Z,99909.33
2024-01-20T15:40:12.742Z,99903.75
2024-01-20T15:42:42.412Z,99896.10
2024-01-20T15:45:13.109Z,99887.51
2024-01-20T15:47:26.247Z,99884.16
2024-01-20T15:49:55.863Z,99883.05
2024-01-20T15:52:27.461Z,99884.36
2024-01-20T15:54:36.984Z,99881.52
2024-01-20T15:56:47.038Z,99873.67
2024-01-20T15:59:06.862Z,99876.75
2024-01-20T16:01:25.704Z,99873.86
2024-01-20T16:03:55.635Z,99859.70
2024-01-20T16:06:10.053Z,99861.44
2024-01-20T16:08:39.907Z,99868.50
2024-01-20T16:11:10.060Z,99870.52
2024-01-20T16:13:19.628Z,99870.17
2024-01-20T16:15:43.904Z,99869.45
2024-01-20T16:18:14.171Z,99871.48
2024-01-20T16:20:28.928Z,99863.42
2024-01-20T16:22:49.577Z,99865.41
2024-01-20T16:25:10.353Z,99877.16
2024-01-20T16:27:40.017Z,99874.58
2024-01-20T16:29:49.606Z,99872.89
2024-01-20T16:32:04.824Z,99871.40
2024-01-20T16:34:17.953Z,99860.95
2024-01-20T16:36:28.115Z,99867.41
2024-01-20T16:38:41.704Z,99865.88
2024-01-20T16:40:53.844Z,99867.24
2024-01-20T16:43:13.886Z,99861.96
2024-01-20T16:45:44.084Z,99853.83
2024-01-20T16:48:09.117Z,99857.38
2024-01-20T16:50:19.327Z,99854.33
2024-01-20T16:52:41.641Z,99850.48
2024-01-20T16:54:54.714Z,99844.77
2024-01-20T16:57:10.159Z,99837.10
2024-01-20T16:59:30.936Z,99843.77
2024-01-20T17:01:49.576Z,99842.11
2024-01-20T17:04:02.639Z,99828.70
2024-01-20T17:06:22.522Z,99805.10
2024-01-20T17:08:52.997Z,99830.40
2024-01-20T17:11:06.509Z,99830.57
2024-01-20T17:13:27.156Z,99834.33
2024-01-20T17:15:40.030Z,99837.88
2024-01-20T17:18:10.219Z,99836.66
2024-01-20T17:20:20.746Z,99844.23
2024-01-20T17:22:33.508Z,99845.64
2024-01-20T17:24:43.433Z,99845.67
2024-01-20T17:27:04.646Z,99838.35
2024-01-20T17:29:17.447Z,99826.16
2024-01-20T17:31:28.858Z,99814.79
2024-01-20T17:33:49.415Z,99800.39
2024-01-20T17:36:03.001Z,99804.38
2024-01-20T17:38:12.888Z,99807.27
2024-01-20T17:40:25.813Z,99811.46
2024-01-20T17:42:38.178Z,99808.98
2024-01-20T17:44:52.413Z,99802.65
2024-01-20T17:47:05.517Z,99794.52
2024-01-20T17:49:15.311Z,99789.98
2024-01-20T17:51:45.911Z,99790.73
2024-01-20T17:53:59.676Z,99786.56
2024-01-20T17:56:10.515Z,99780.64
2024-01-20T17:58:40.290Z,99780.81
2024-01-20T18:00:53.099Z,99773.73
2024-01-20T18:03:02.725Z,99767.49
2024-01-20T18:05:12.716Z,99767.31
2024-01-20T18:07:22.708Z,99759.46
2024-01-20T18:09:36.012Z,99770.96
2024-01-20T18:11:47.296Z,99777.13
2024-01-20T18:13:56.989Z,99784.77
2024-01-20T18:16:07.324Z,99770.23
2024-01-20T18:18:17.103Z,99763.31
2024-01-20T18:20:36.742Z,99755.91
2024-01-20T18:22:56.225Z,99754.45
2024-01-20T18:25:11.659Z,99742.98
2024-01-20T18:27:24.363Z,99744.66
2024-01-20T18:29:54.928Z,99751.70
2024-01-20T18:32:10.649Z,99759.37
2024-01-20T18:34:20.449Z,99759.16
2024-01-20T18:36:51.410Z,99762.95
2024-01-20T18:39:01.337Z,99764.52
2024-01-20T18:41:11.445Z,99766.32
2024-01-20T18:43:31.797Z,99760.77
2024-01-20T18:46:01.364Z,99763.30
2024-01-20T18:48:12.435Z,99766.86
2024-01-20T18:50:36.219Z,99762.50
2024-01-20T18:53:06.120Z,99746.36
2024-01-20T18:55:19.282Z,99746.08
2024-01-20T18:57:31.828Z,99740.02
2024-01-20T19:00:03.069Z,99741.11
2024-01-20T19:02:27.470Z,99732.50
2024-01-20T19:04:39.081Z,99729.75
2024-01-20T19:07:09.214Z,99729.33
2024-01-20T19:09:22.270Z,99731.22
2024-01-20T19:11:31.945Z,99728.11
2024-01-20T19:13:42.217Z,99726.10
2024-01-20T19:15:52.624Z,99733.35
2024-01-20T19:18:22.647Z,99723.72
2024-01-20T19:20:47.592Z,99718.55
2024-01-20T19:23:17.641Z,99723.76
2024-01-20T19:25:38.317Z,99723.60
2024-01-20T19:27:48.446Z,99717.60
2024-01-20T19:30:21.694Z,99712.73
2024-01-20T19:32:45.027Z,99709.54
2024-01-20T19:34:54.868Z,99709.59
2024-01-20T19:37:14.677Z,99700.71
2024-01-20T19:39:35.611Z,99695.05
2024-01-20T19:41:48.038Z,99691.81
2024-01-20T19:44:17.752Z,99688.11
2024-01-20T19:46:30.696Z,99694.15
2024-01-20T19:48:44.843Z,99685.03
2024-01-20T19:50:57.981Z,99688.45
2024-01-20T19:53:11.335Z,99686.52
2024-01-20T19:55:31.526Z,99676.44
2024-01-20T19:58:01.330Z,99683.95
2024-01-20T20:00:25.057Z,99670.77
2024-01-20T20:02:37.699Z,99657.90
2024-01-20T20:04:50.893Z,99653.32
2024-01-20T20:07:20.412Z,99641.70
2024-01-20T20:09:50.161Z,99649.17
2024-01-20T20:12:11.982Z,99634.13
2024-01-20T20:14:24.789Z,99638.65
2024-01-20T20:16:54.605Z,99646.99
2024-01-20T20:19:08.490Z,99626.20
2024-01-20T20:21:21.069Z,99617.71
2024-01-20T20:23:42.038Z,99610.11
2024-01-20T20:25:51.873Z,99601.05
2024-01-20T20:28:11.137Z,99595.41
2024-01-20T20:30:28.561Z,99582.47
2024-01-20T20:33:00.164Z,99575.55
2024-01-20T20:35:13.348Z,99574.13
2024-01-20T20:37:26.329Z,99557.42
2024-01-20T20:39:42.098Z,99560.27
2024-01-20T20:41:54.933Z,99563.23
2024-01-20T20:44:08.062Z,99559.63
2024-01-20T20:46:37.762Z,99549.62
2024-01-20T20:49:09.661Z,99555.80
2024-01-20T20:51:17.797Z,99571.36
2024-01-20T20:53:47.549Z,99579.86
2024-01-20T20:56:00.987Z,99563.91
2024-01-20T20:58:23.333Z,99561.47
2024-01-20T21:00:53.627Z,99570.38
2024-01-20T21:03:04.971Z,99573.40
2024-01-20T21:05:18.421Z,99577.23
2024-01-20T21:07:39.576Z,99575.86
2024-01-20T21:10:02.610Z,99564.80
2024-01-20T21:12:39.410Z,99566.39
2024-01-20T21:14:49.611Z,99560.12
2024-01-20T21:17:19.410Z,99565.00
2024-01-20T21:19:32.572Z,99572.79
2024-01-20T21:21:46.062Z,99572.17
2024-01-20T21:23:55.959Z,99567.72
2024-01-20T21:26:05.879Z,99572.55
2024-01-20T21:28:26.637Z,99564.73
2024-01-20T21:30:56.611Z,99561.87
2024-01-20T21:33:16.788Z,99558.75
2024-01-20T21:35:46.711Z,99556.98
2024-01-20T21:38:08.525Z,99545.55
2024-01-20T21:40:21.987Z,99546.52
2024-01-20T21:42:41.839Z,99556.75
2024-01-20T21:45:02.003Z,99554.40
2024-01-20T21:47:24.357Z,99557.02
2024-01-20T21:49:53.881Z,99560.36
2024-01-20T21:52:03.322Z,99560.83
2024-01-20T21:54:15.171Z,99582.13
2024-01-20T21:56:28.184Z,99575.70
2024-01-20T21:58:41.330Z,99572.69
2024-01-20T22:00:51.909Z,99564.94
2024-01-20T22:03:06.169Z,99570.16
2024-01-20T22:05:35.849Z,99577.52
2024-01-20T22:08:05.975Z,99581.80
2024-01-20T22:10:16.677Z,99574.65
2024-01-20T22:12:26.440Z,99561.60
2024-01-20T22:14:46.986Z,99545.39
2024-01-20T22:16:56.948Z,99529.96
2024-01-20T22:19:06.990Z,99512.41
2024-01-20T22:21:16.477Z,99497.02
2024-01-20T22:23:37.269Z,99491.88
2024-01-20T22:25:56.892Z,99494.28
2024-01-20T22:28:06.586Z,99511.13
2024-01-20T22:30:20.268Z,99519.20
2024-01-20T22:32:31.294Z,99522.67
2024-01-20T22:35:01.108Z,99521.02
2024-01-20T22:37:21.390Z,99520.05
2024-01-20T22:39:34.166Z,99520.84
2024-01-20T22:41:53.785Z,99523.45
2024-01-20T22:44:08.285Z,99524.14
2024-01-20T22:46:30.590Z,99528.33
2024-01-20T22:49:00.427Z,99532.22
2024-01-20T22:51:26.885Z,99522.40
2024-01-20T22:53:47.530Z,99525.60
2024-01-20T22:55:57.163Z,99522.87
2024-01-20T22:58:06.798Z,99527.93
2024-01-20T23:00:28.467Z,99520.70
2024-01-20T23:02:38.393Z,99513.70
2024-01-20T23:04:49.598Z,99528.18
2024-01-20T23:07:11.086Z,99527.30
2024-01-20T23:09:30.856Z,99529.79
2024-01-20T23:11:40.349Z,99532.12
2024-01-20T23:14:09.845Z,99540.91
2024-01-20T23:16:25.234Z,99546.77
2024-01-20T23:18:46.341Z,99552.55
2024-01-20T23:20:56.186Z,99545.27
2024-01-20T23:23:05.986Z,99549.00
2024-01-20T23:25:35.446Z,99541.19
2024-01-20T23:27:48.727Z,99540.10
2024-01-20T23:29:58.882Z,99542.45
2024-01-20T23:32:28.536Z,99533.93
2024-01-20T23:34:58.254Z,99535.33
2024-01-20T23:37:27.910Z,99528.54
2024-01-20T23:39:40.270Z,99533.55
2024-01-20T23:41:54.150Z,99524.80
2024-01-20T23:44:23.790Z,99514.86
2024-01-20T23:46:55.925Z,99506.45
2024-01-20T23:49:08.656Z,99495.38
2024-01-20T23:51:37.625Z,99486.79
2024-01-20T23:54:08.047Z,99477.33
2024-01-20T23:56:37.922Z,99493.48
2024-01-20T23:59:08.850Z,99505.06
